Overview Statistics Trail Chart Weather Telemetry Raw packets
 

This is the latest recevied weather packets stored in our database for station/object KD7AWQ. If no packets are shown the sender has not sent any weather packets the latest 10 day(s).

<< 12 13 14 15 16 17 18 >>
Time Temp. Humidity Pressure Rain* Wind** Luminosity Snow
1788364360 27.78° C 39% 1190.1 hPa 0 mm - 549 W/m² -
1788364055 27.78° C 40% 1190.3 hPa 0 mm - 527 W/m² -
1788363750 27.78° C 41% 1190.3 hPa 0 mm - 507 W/m² -
1788363444 27.78° C 40% 1190.4 hPa 0 mm - 485 W/m² -
1788363144 27.78° C 41% 1190.3 hPa 0 mm - 462 W/m² -
1788362840 27.22° C 40% 1190.4 hPa 0 mm - 443 W/m² -
1788362536 27.22° C 41% 1190.3 hPa 0 mm - 423 W/m² -
1788362231 27.22° C 42% 1190 hPa 0 mm - 402 W/m² -
1788361926 27.22° C 42% 1190 hPa 0 mm - 379 W/m² -
1788361621 27.78° C 40% 1190.1 hPa 0 mm - 357 W/m² -
1788361317 27.78° C 40% 1190.1 hPa 0 mm - 337 W/m² -
1788361015 27.78° C 39% 1190.3 hPa 0 mm - 310 W/m² -
1788360715 27.78° C 40% 1190.1 hPa 0 mm - 288 W/m² -
1788360425 26.67° C 42% 1190.3 hPa 0 mm - 267 W/m² -
1788360107 27.22° C 41% 1190.1 hPa 0 mm - 247 W/m² -
1788359802 27.78° C 39% 1190 hPa 0 mm - 226 W/m² -
1788359497 27.78° C 39% 1190.1 hPa 0 mm - 205 W/m² -
1788359193 26.11° C 42% 1190.4 hPa 0 mm - 186 W/m² -
1788358907 25.56° C 43% 1190 hPa 0 mm - 167 W/m² -
1788358588 25° C 45% 1190.1 hPa 0 mm - 149 W/m² -
1788358284 24.44° C 48% 1190.1 hPa 0 mm - 133 W/m² -
1788357979 24.44° C 50% 1190.4 hPa 0 mm - 118 W/m² -
1788357674 24.44° C 49% 1190.1 hPa 0 mm - 103 W/m² -
1788357373 24.44° C 49% 1189.9 hPa 0 mm - 89 W/m² -
1788357068 24.44° C 49% 1189.8 hPa 0 mm - 45 W/m² -

* Rain latest hour (hover to see other rain measurements)
** Current wind speed in m/s (hover to see current wind gust speed)